QTR1191 OEJN-OTHH
Flight info
| Callsign | QTR1191 |
|---|---|
| Flight time | N/A |
| Altitude | 37000 |
| Route | EGREP T532 KODIS Y214 RAPMA DCT LADBO/N0497F290 T142 LAEEB |
| Aircraft | A35K/H-SDE2E3GHIJ3J4J5LM1ORWXY/LB1D1 |
Departure
| Time | N/A |
|---|---|
| Airport | King Abdulaziz International Airport (OEJN) |
Arrival
| Time | 2026-05-03 21:42 |
|---|---|
| Airport | Hamad International Airport (OTHH) |
| Time | Latitude | Longitude | Altitude | Speed | Heading |
|---|---|---|---|---|---|
| 2026-05-03 20:15 | 22.69715 | 40.05681 | 27946 ft | 507 kts | 40° |
| 2026-05-03 20:15 | 22.72371 | 40.08223 | 28346 ft | 512 kts | 40° |
| 2026-05-03 20:15 | 22.75055 | 40.10791 | 28725 ft | 517 kts | 39° |
| 2026-05-03 20:15 | 22.77756 | 40.13377 | 29153 ft | 520 kts | 39° |
| 2026-05-03 20:16 | 22.80478 | 40.15986 | 29546 ft | 524 kts | 39° |
| 2026-05-03 20:16 | 22.83219 | 40.18616 | 29934 ft | 528 kts | 39° |
| 2026-05-03 20:16 | 22.85974 | 40.21262 | 30286 ft | 531 kts | 39° |
| 2026-05-03 20:16 | 22.88747 | 40.23926 | 30600 ft | 534 kts | 39° |
| 2026-05-03 20:17 | 22.91538 | 40.26609 | 30916 ft | 538 kts | 39° |
| 2026-05-03 20:17 | 22.94341 | 40.29307 | 31229 ft | 540 kts | 39° |
| 2026-05-03 20:17 | 22.97162 | 40.32022 | 31517 ft | 543 kts | 39° |
| 2026-05-03 20:17 | 22.99990 | 40.34746 | 31827 ft | 545 kts | 39° |
| 2026-05-03 20:18 | 23.02831 | 40.37484 | 32153 ft | 547 kts | 39° |
| 2026-05-03 20:18 | 23.05674 | 40.40226 | 32577 ft | 546 kts | 39° |
| 2026-05-03 20:18 | 23.08508 | 40.42962 | 33017 ft | 545 kts | 39° |
| 2026-05-03 20:18 | 23.11342 | 40.45698 | 33367 ft | 546 kts | 39° |
| 2026-05-03 20:19 | 23.14178 | 40.48437 | 33724 ft | 545 kts | 39° |
| 2026-05-03 20:19 | 23.17002 | 40.51167 | 34188 ft | 542 kts | 39° |
| 2026-05-03 20:19 | 23.19821 | 40.53894 | 34539 ft | 542 kts | 39° |
| 2026-05-03 20:19 | 23.22633 | 40.56616 | 34859 ft | 541 kts | 39° |
| 2026-05-03 20:20 | 23.25331 | 40.59472 | 35160 ft | 543 kts | 46° |
| 2026-05-03 20:20 | 23.27622 | 40.62739 | 35462 ft | 545 kts | 57° |
| 2026-05-03 20:20 | 23.29391 | 40.66393 | 35673 ft | 547 kts | 66° |
| 2026-05-03 20:20 | 23.30862 | 40.70206 | 35933 ft | 547 kts | 68° |
| 2026-05-03 20:21 | 23.32235 | 40.74069 | 36251 ft | 546 kts | 70° |
| 2026-05-03 20:21 | 23.33557 | 40.77941 | 36544 ft | 546 kts | 70° |
| 2026-05-03 20:21 | 23.34865 | 40.81818 | 36843 ft | 546 kts | 70° |
| 2026-05-03 20:21 | 23.36159 | 40.85639 | 37029 ft | 547 kts | 70° |
| 2026-05-03 20:22 | 23.37485 | 40.89530 | 37064 ft | 549 kts | 70° |
| 2026-05-03 20:22 | 23.40168 | 40.97326 | 37067 ft | 550 kts | 70° |
| 2026-05-03 20:23 | 23.42865 | 41.05129 | 37065 ft | 551 kts | 69° |
| 2026-05-03 20:23 | 23.45562 | 41.12938 | 37059 ft | 551 kts | 70° |
| 2026-05-03 20:24 | 23.48254 | 41.20755 | 37061 ft | 551 kts | 70° |
| 2026-05-03 20:24 | 23.50939 | 41.28567 | 37053 ft | 551 kts | 70° |
| 2026-05-03 20:25 | 23.53620 | 41.36384 | 37062 ft | 551 kts | 70° |
| 2026-05-03 20:25 | 23.56303 | 41.44221 | 37047 ft | 553 kts | 70° |
| 2026-05-03 20:26 | 23.58985 | 41.52071 | 37048 ft | 553 kts | 70° |
| 2026-05-03 20:26 | 23.61665 | 41.59928 | 37039 ft | 552 kts | 70° |
| 2026-05-03 20:27 | 23.64335 | 41.67772 | 37040 ft | 551 kts | 70° |
| 2026-05-03 20:27 | 23.66999 | 41.75613 | 37036 ft | 552 kts | 70° |
| 2026-05-03 20:28 | 23.69585 | 41.83509 | 37035 ft | 552 kts | 71° |
| 2026-05-03 20:28 | 23.72070 | 41.91413 | 37029 ft | 550 kts | 72° |
| 2026-05-03 20:29 | 23.74556 | 41.99312 | 37024 ft | 550 kts | 71° |
| 2026-05-03 20:29 | 23.77164 | 42.07153 | 37026 ft | 549 kts | 70° |
| 2026-05-03 20:30 | 23.79868 | 42.14939 | 37026 ft | 548 kts | 70° |
| 2026-05-03 20:30 | 23.82556 | 42.22730 | 37024 ft | 548 kts | 70° |
| 2026-05-03 20:31 | 23.85218 | 42.30529 | 37029 ft | 548 kts | 70° |
| 2026-05-03 20:31 | 23.87867 | 42.38331 | 37029 ft | 548 kts | 70° |
| 2026-05-03 20:32 | 23.90493 | 42.46081 | 37030 ft | 549 kts | 70° |
| 2026-05-03 20:32 | 23.93143 | 42.53914 | 37031 ft | 550 kts | 70° |
| 2026-05-03 20:33 | 23.95791 | 42.61755 | 37018 ft | 550 kts | 70° |
| 2026-05-03 20:33 | 23.98433 | 42.69591 | 37029 ft | 549 kts | 70° |
| 2026-05-03 20:34 | 24.01065 | 42.77414 | 37038 ft | 548 kts | 70° |
| 2026-05-03 20:34 | 24.03327 | 42.85364 | 37031 ft | 547 kts | 82° |
| 2026-05-03 20:34 | 24.03676 | 42.89484 | 37034 ft | 543 kts | 93° |
| 2026-05-03 20:35 | 24.03353 | 42.93575 | 37034 ft | 537 kts | 104° |
| 2026-05-03 20:35 | 24.01503 | 43.01441 | 37033 ft | 534 kts | 110° |
| 2026-05-03 20:36 | 23.99346 | 43.09211 | 37039 ft | 533 kts | 111° |
| 2026-05-03 20:36 | 23.97178 | 43.16959 | 37038 ft | 533 kts | 111° |
| 2026-05-03 20:37 | 23.95042 | 43.24719 | 37036 ft | 533 kts | 110° |
| 2026-05-03 20:37 | 23.92922 | 43.32477 | 37040 ft | 533 kts | 110° |
| 2026-05-03 20:38 | 23.90802 | 43.40231 | 37039 ft | 532 kts | 110° |
| 2026-05-03 20:38 | 23.88678 | 43.47978 | 37046 ft | 532 kts | 110° |
| 2026-05-03 20:39 | 23.86554 | 43.55707 | 37027 ft | 531 kts | 110° |
| 2026-05-03 20:39 | 23.84426 | 43.63432 | 37010 ft | 531 kts | 110° |
| 2026-05-03 20:40 | 23.82297 | 43.71141 | 37028 ft | 529 kts | 110° |
| 2026-05-03 20:40 | 23.80168 | 43.78837 | 37021 ft | 529 kts | 110° |
| 2026-05-03 20:41 | 23.78059 | 43.86528 | 37004 ft | 530 kts | 108° |
| 2026-05-03 20:41 | 23.76954 | 43.94507 | 37005 ft | 533 kts | 98° |
| 2026-05-03 20:42 | 23.76319 | 44.02582 | 36992 ft | 534 kts | 97° |
| 2026-05-03 20:42 | 23.75751 | 44.10666 | 37004 ft | 534 kts | 97° |
| 2026-05-03 20:43 | 23.75167 | 44.18745 | 36998 ft | 534 kts | 97° |
| 2026-05-03 20:43 | 23.74560 | 44.26834 | 36999 ft | 535 kts | 97° |
| 2026-05-03 20:44 | 23.73944 | 44.34916 | 37004 ft | 534 kts | 97° |
| 2026-05-03 20:44 | 23.73324 | 44.42998 | 37000 ft | 534 kts | 97° |
| 2026-05-03 20:45 | 23.72700 | 44.51073 | 37007 ft | 533 kts | 97° |
| 2026-05-03 20:45 | 23.72078 | 44.59085 | 37009 ft | 533 kts | 97° |
| 2026-05-03 20:46 | 23.71448 | 44.67141 | 37002 ft | 533 kts | 97° |
| 2026-05-03 20:46 | 23.70814 | 44.75191 | 37002 ft | 532 kts | 98° |
| 2026-05-03 20:47 | 23.70177 | 44.83233 | 37001 ft | 532 kts | 98° |
| 2026-05-03 20:47 | 23.69538 | 44.91276 | 36990 ft | 532 kts | 98° |
| 2026-05-03 20:48 | 23.68892 | 44.99321 | 37000 ft | 533 kts | 98° |
| 2026-05-03 20:48 | 23.68238 | 45.07371 | 36992 ft | 532 kts | 98° |
| 2026-05-03 20:49 | 23.67583 | 45.15401 | 36993 ft | 531 kts | 98° |
| 2026-05-03 20:49 | 23.66925 | 45.23417 | 36994 ft | 530 kts | 98° |
| 2026-05-03 20:50 | 23.66374 | 45.30076 | 36990 ft | 530 kts | 98° |
| 2026-05-03 20:50 | 23.65712 | 45.38091 | 36990 ft | 530 kts | 98° |
| 2026-05-03 20:51 | 23.65045 | 45.46103 | 36987 ft | 531 kts | 98° |
| 2026-05-03 20:51 | 23.64373 | 45.54118 | 36981 ft | 531 kts | 98° |
| 2026-05-03 20:52 | 23.63696 | 45.62128 | 36979 ft | 530 kts | 98° |
| 2026-05-03 20:52 | 23.63022 | 45.70121 | 36977 ft | 529 kts | 98° |
| 2026-05-03 20:53 | 23.62335 | 45.78116 | 36962 ft | 529 kts | 98° |
| 2026-05-03 20:53 | 23.61645 | 45.86109 | 36962 ft | 530 kts | 98° |
| 2026-05-03 20:54 | 23.60951 | 45.94106 | 36965 ft | 530 kts | 98° |
| 2026-05-03 20:54 | 23.59904 | 46.06101 | 36965 ft | 530 kts | 98° |
| 2026-05-03 20:55 | 23.59202 | 46.14094 | 36965 ft | 530 kts | 98° |
| 2026-05-03 20:55 | 23.58495 | 46.22086 | 36964 ft | 529 kts | 98° |
| 2026-05-03 20:56 | 23.57784 | 46.30072 | 36970 ft | 529 kts | 98° |
| 2026-05-03 20:56 | 23.57074 | 46.38002 | 36978 ft | 529 kts | 98° |
| 2026-05-03 20:57 | 23.56355 | 46.45989 | 36978 ft | 529 kts | 98° |
| 2026-05-03 20:57 | 23.55633 | 46.53973 | 36983 ft | 530 kts | 98° |
| 2026-05-03 20:58 | 23.54910 | 46.61956 | 36964 ft | 529 kts | 98° |
| 2026-05-03 20:58 | 23.54178 | 46.69932 | 36967 ft | 528 kts | 98° |
| 2026-05-03 20:59 | 23.53444 | 46.77893 | 36958 ft | 528 kts | 98° |
| 2026-05-03 20:59 | 23.52705 | 46.85858 | 36953 ft | 528 kts | 98° |
| 2026-05-03 21:00 | 23.52089 | 46.92470 | 36954 ft | 528 kts | 98° |
| 2026-05-03 21:00 | 23.51218 | 47.01780 | 36949 ft | 529 kts | 98° |
| 2026-05-03 21:01 | 23.50466 | 47.09755 | 36935 ft | 529 kts | 98° |
| 2026-05-03 21:01 | 23.49717 | 47.17671 | 36934 ft | 528 kts | 98° |
| 2026-05-03 21:02 | 23.48960 | 47.25627 | 36932 ft | 528 kts | 98° |
| 2026-05-03 21:02 | 23.48199 | 47.33575 | 36925 ft | 528 kts | 98° |
| 2026-05-03 21:03 | 23.47434 | 47.41525 | 36923 ft | 528 kts | 98° |
| 2026-05-03 21:03 | 23.46664 | 47.49480 | 36909 ft | 528 kts | 98° |
| 2026-05-03 21:04 | 23.45895 | 47.57433 | 36909 ft | 528 kts | 98° |
| 2026-05-03 21:04 | 23.45116 | 47.65386 | 36906 ft | 529 kts | 98° |
| 2026-05-03 21:05 | 23.44332 | 47.73345 | 36896 ft | 528 kts | 98° |
| 2026-05-03 21:05 | 23.43547 | 47.81282 | 36890 ft | 527 kts | 98° |
| 2026-05-03 21:06 | 23.42760 | 47.89211 | 36891 ft | 527 kts | 98° |
| 2026-05-03 21:06 | 23.41968 | 47.97139 | 36880 ft | 527 kts | 98° |
| 2026-05-03 21:07 | 23.41173 | 48.05067 | 36880 ft | 527 kts | 98° |
| 2026-05-03 21:07 | 23.40372 | 48.13006 | 36873 ft | 528 kts | 98° |
| 2026-05-03 21:08 | 23.39567 | 48.20949 | 36871 ft | 528 kts | 98° |
| 2026-05-03 21:08 | 23.38759 | 48.28888 | 36866 ft | 527 kts | 98° |
| 2026-05-03 21:09 | 23.38649 | 48.32870 | 36867 ft | 529 kts | 86° |
| 2026-05-03 21:09 | 23.39278 | 48.36809 | 36870 ft | 528 kts | 73° |
| 2026-05-03 21:09 | 23.41596 | 48.44399 | 36869 ft | 529 kts | 70° |
| 2026-05-03 21:10 | 23.44198 | 48.51906 | 36863 ft | 530 kts | 69° |
| 2026-05-03 21:10 | 23.46792 | 48.59370 | 36865 ft | 530 kts | 69° |
| 2026-05-03 21:11 | 23.49360 | 48.66898 | 36866 ft | 530 kts | 70° |
| 2026-05-03 21:11 | 23.51907 | 48.74439 | 36863 ft | 530 kts | 70° |
| 2026-05-03 21:12 | 23.54446 | 48.81980 | 36864 ft | 530 kts | 70° |
| 2026-05-03 21:12 | 23.56984 | 48.89528 | 36860 ft | 530 kts | 70° |
| 2026-05-03 21:13 | 23.59520 | 48.97079 | 36860 ft | 530 kts | 70° |
| 2026-05-03 21:13 | 23.62052 | 49.04632 | 36860 ft | 530 kts | 70° |
| 2026-05-03 21:14 | 23.64581 | 49.12190 | 36858 ft | 531 kts | 70° |
| 2026-05-03 21:14 | 23.67109 | 49.19759 | 36858 ft | 532 kts | 70° |
| 2026-05-03 21:15 | 23.69636 | 49.27340 | 36856 ft | 532 kts | 70° |
| 2026-05-03 21:15 | 23.72160 | 49.34922 | 36859 ft | 532 kts | 70° |
| 2026-05-03 21:16 | 23.74683 | 49.42519 | 36858 ft | 532 kts | 70° |
| 2026-05-03 21:16 | 23.77200 | 49.50111 | 36859 ft | 532 kts | 70° |
| 2026-05-03 21:17 | 23.79290 | 49.56425 | 36860 ft | 532 kts | 70° |
| 2026-05-03 21:17 | 23.82227 | 49.65318 | 36860 ft | 533 kts | 70° |
| 2026-05-03 21:18 | 23.84737 | 49.72930 | 36860 ft | 533 kts | 70° |
| 2026-05-03 21:18 | 23.87246 | 49.80555 | 36856 ft | 534 kts | 70° |
| 2026-05-03 21:19 | 23.89753 | 49.88188 | 36856 ft | 534 kts | 70° |
| 2026-05-03 21:19 | 23.92259 | 49.95833 | 36856 ft | 534 kts | 70° |
| 2026-05-03 21:20 | 23.94744 | 50.03428 | 36854 ft | 535 kts | 70° |
| 2026-05-03 21:20 | 23.97244 | 50.11082 | 36852 ft | 535 kts | 70° |
| 2026-05-03 21:21 | 23.99742 | 50.18745 | 36852 ft | 535 kts | 70° |
| 2026-05-03 21:21 | 24.02237 | 50.26413 | 36848 ft | 535 kts | 70° |
| 2026-05-03 21:22 | 24.03481 | 50.30243 | 36656 ft | 533 kts | 70° |
| 2026-05-03 21:22 | 24.04716 | 50.34050 | 36176 ft | 529 kts | 70° |
| 2026-05-03 21:22 | 24.05941 | 50.37827 | 35585 ft | 527 kts | 70° |
| 2026-05-03 21:22 | 24.07169 | 50.41614 | 34937 ft | 528 kts | 70° |
| 2026-05-03 21:23 | 24.08396 | 50.45405 | 34214 ft | 530 kts | 70° |
| 2026-05-03 21:23 | 24.09628 | 50.49217 | 33427 ft | 533 kts | 70° |
| 2026-05-03 21:23 | 24.10865 | 50.53049 | 32638 ft | 534 kts | 70° |
| 2026-05-03 21:23 | 24.12103 | 50.56886 | 31872 ft | 535 kts | 70° |
| 2026-05-03 21:24 | 24.13338 | 50.60721 | 31350 ft | 531 kts | 70° |
| 2026-05-03 21:24 | 24.14561 | 50.64519 | 30831 ft | 527 kts | 70° |
| 2026-05-03 21:24 | 24.15776 | 50.68299 | 30306 ft | 524 kts | 69° |
| 2026-05-03 21:24 | 24.16981 | 50.72049 | 29765 ft | 521 kts | 69° |
| 2026-05-03 21:25 | 24.18180 | 50.75780 | 29185 ft | 517 kts | 69° |
| 2026-05-03 21:25 | 24.19367 | 50.79476 | 28687 ft | 512 kts | 69° |
| 2026-05-03 21:25 | 24.20541 | 50.83137 | 28164 ft | 507 kts | 69° |
| 2026-05-03 21:25 | 24.21704 | 50.86768 | 27666 ft | 502 kts | 70° |
| 2026-05-03 21:26 | 24.22852 | 50.90357 | 27171 ft | 497 kts | 70° |
| 2026-05-03 21:26 | 24.23989 | 50.93912 | 26681 ft | 492 kts | 70° |
| 2026-05-03 21:26 | 24.25114 | 50.97435 | 26201 ft | 488 kts | 70° |
| 2026-05-03 21:26 | 24.26228 | 51.00924 | 25715 ft | 483 kts | 70° |
| 2026-05-03 21:27 | 24.27330 | 51.04381 | 25236 ft | 478 kts | 70° |
| 2026-05-03 21:27 | 24.28421 | 51.07807 | 24761 ft | 474 kts | 70° |
| 2026-05-03 21:27 | 24.29503 | 51.11204 | 24288 ft | 469 kts | 70° |
| 2026-05-03 21:27 | 24.30571 | 51.14562 | 23817 ft | 465 kts | 70° |
| 2026-05-03 21:28 | 24.31630 | 51.17895 | 23334 ft | 461 kts | 70° |
| 2026-05-03 21:28 | 24.32735 | 51.21170 | 22809 ft | 455 kts | 65° |
| 2026-05-03 21:28 | 24.34337 | 51.24111 | 22384 ft | 446 kts | 50° |
| 2026-05-03 21:28 | 24.36347 | 51.26660 | 21918 ft | 438 kts | 45° |
| 2026-05-03 21:29 | 24.38472 | 51.29023 | 21452 ft | 432 kts | 43° |
| 2026-05-03 21:29 | 24.40639 | 51.31271 | 21013 ft | 426 kts | 41° |
| 2026-05-03 21:29 | 24.42811 | 51.33459 | 20579 ft | 421 kts | 41° |
| 2026-05-03 21:29 | 24.44961 | 51.35616 | 20104 ft | 417 kts | 41° |
| 2026-05-03 21:30 | 24.47088 | 51.37762 | 19671 ft | 414 kts | 41° |
| 2026-05-03 21:30 | 24.49161 | 51.39872 | 19229 ft | 410 kts | 41° |
| 2026-05-03 21:30 | 24.51240 | 51.41996 | 18783 ft | 407 kts | 40° |
| 2026-05-03 21:30 | 24.53504 | 51.43822 | 18335 ft | 401 kts | 28° |
| 2026-05-03 21:31 | 24.55969 | 51.45305 | 17841 ft | 397 kts | 25° |
| 2026-05-03 21:31 | 24.58367 | 51.46635 | 17191 ft | 385 kts | 24° |
| 2026-05-03 21:31 | 24.60722 | 51.47891 | 16735 ft | 366 kts | 23° |
| 2026-05-03 21:31 | 24.62945 | 51.49077 | 16392 ft | 346 kts | 23° |
| 2026-05-03 21:32 | 24.65065 | 51.50212 | 15849 ft | 334 kts | 23° |
| 2026-05-03 21:32 | 24.67143 | 51.51324 | 15020 ft | 332 kts | 23° |
| 2026-05-03 21:32 | 24.69227 | 51.52441 | 14101 ft | 334 kts | 23° |
| 2026-05-03 21:32 | 24.71319 | 51.53566 | 13134 ft | 335 kts | 23° |
| 2026-05-03 21:33 | 24.73412 | 51.54694 | 12144 ft | 335 kts | 22° |
| 2026-05-03 21:33 | 24.75503 | 51.55823 | 11183 ft | 334 kts | 22° |
| 2026-05-03 21:33 | 24.77587 | 51.56949 | 10254 ft | 334 kts | 21° |
| 2026-05-03 21:33 | 24.79668 | 51.58073 | 9316 ft | 333 kts | 21° |
| 2026-05-03 21:34 | 24.81745 | 51.59193 | 8328 ft | 331 kts | 21° |
| 2026-05-03 21:34 | 24.83806 | 51.60305 | 7394 ft | 329 kts | 22° |
| 2026-05-03 21:34 | 24.85819 | 51.61396 | 6922 ft | 313 kts | 22° |
| 2026-05-03 21:34 | 24.87718 | 51.62430 | 6532 ft | 296 kts | 22° |
| 2026-05-03 21:35 | 24.89422 | 51.63354 | 6126 ft | 285 kts | 22° |
| 2026-05-03 21:35 | 24.91199 | 51.64314 | 5759 ft | 284 kts | 22° |
| 2026-05-03 21:35 | 24.92975 | 51.65271 | 5481 ft | 285 kts | 22° |
| 2026-05-03 21:35 | 24.94745 | 51.66228 | 5127 ft | 282 kts | 22° |
| 2026-05-03 21:36 | 24.96479 | 51.67169 | 4932 ft | 272 kts | 22° |
| 2026-05-03 21:36 | 24.98133 | 51.68069 | 4815 ft | 259 kts | 22° |
| 2026-05-03 21:36 | 24.99707 | 51.68925 | 4697 ft | 246 kts | 22° |
| 2026-05-03 21:36 | 25.01227 | 51.69739 | 4434 ft | 240 kts | 21° |
| 2026-05-03 21:37 | 25.02819 | 51.70098 | 4162 ft | 232 kts | 356° |
| 2026-05-03 21:37 | 25.04393 | 51.69835 | 3888 ft | 228 kts | 342° |
| 2026-05-03 21:37 | 25.05879 | 51.69242 | 3669 ft | 224 kts | 336° |
| 2026-05-03 21:37 | 25.07276 | 51.68603 | 3580 ft | 211 kts | 337° |
| 2026-05-03 21:38 | 25.08600 | 51.68009 | 3421 ft | 201 kts | 337° |
| 2026-05-03 21:38 | 25.09881 | 51.67449 | 3174 ft | 196 kts | 338° |
| 2026-05-03 21:38 | 25.10714 | 51.67084 | 2984 ft | 193 kts | 338° |
| 2026-05-03 21:38 | 25.12332 | 51.66369 | 2640 ft | 186 kts | 338° |
| 2026-05-03 21:39 | 25.13514 | 51.65847 | 2408 ft | 180 kts | 339° |
| 2026-05-03 21:39 | 25.14651 | 51.65347 | 2192 ft | 171 kts | 340° |
| 2026-05-03 21:39 | 25.15727 | 51.64872 | 1985 ft | 162 kts | 340° |
| 2026-05-03 21:39 | 25.16743 | 51.64423 | 1772 ft | 153 kts | 340° |
| 2026-05-03 21:40 | 25.17398 | 51.64134 | 1641 ft | 147 kts | 340° |
| 2026-05-03 21:40 | 25.18334 | 51.63721 | 1467 ft | 144 kts | 340° |
| 2026-05-03 21:40 | 25.19265 | 51.63310 | 1282 ft | 144 kts | 340° |
| 2026-05-03 21:40 | 25.20198 | 51.62899 | 1096 ft | 145 kts | 339° |
| 2026-05-03 21:41 | 25.21117 | 51.62493 | 928 ft | 143 kts | 339° |
| 2026-05-03 21:41 | 25.22057 | 51.62079 | 754 ft | 144 kts | 338° |
| 2026-05-03 21:41 | 25.22993 | 51.61664 | 583 ft | 146 kts | 338° |
| 2026-05-03 21:41 | 25.23930 | 51.61250 | 392 ft | 147 kts | 338° |
| 2026-05-03 21:42 | 25.24879 | 51.60826 | 221 ft | 148 kts | 338° |
| 2026-05-03 21:42 | 25.25820 | 51.60407 | 50 ft | 145 kts | 338° |
| 2026-05-03 21:42 | 25.26642 | 51.60050 | 31 ft | 93 kts | 338° |
| 2026-05-03 21:42 | 25.27041 | 51.59876 | 31 ft | 48 kts | 339° |
| 2026-05-03 21:43 | 25.27276 | 51.59818 | 32 ft | 24 kts | 0° |
| 2026-05-03 21:43 | 25.27433 | 51.59837 | 34 ft | 21 kts | 20° |
| 2026-05-03 21:43 | 25.27434 | 51.59909 | 35 ft | 11 kts | 153° |
| 2026-05-03 21:43 | 25.27357 | 51.59944 | 35 ft | 13 kts | 158° |
| 2026-05-03 21:44 | 25.27264 | 51.59984 | 35 ft | 16 kts | 159° |
| 2026-05-03 21:44 | 25.27156 | 51.60032 | 34 ft | 18 kts | 158° |
| 2026-05-03 21:44 | 25.27039 | 51.60084 | 34 ft | 17 kts | 158° |
| 2026-05-03 21:44 | 25.26950 | 51.60154 | 35 ft | 14 kts | 103° |
| 2026-05-03 21:45 | 25.26933 | 51.60232 | 35 ft | 8 kts | 140° |
| 2026-05-03 21:45 | 25.26874 | 51.60262 | 35 ft | 11 kts | 156° |
| 2026-05-03 21:45 | 25.26797 | 51.60297 | 35 ft | 13 kts | 159° |
| 2026-05-03 21:45 | 25.26779 | 51.60363 | 35 ft | 9 kts | 75° |
| 2026-05-03 21:46 | 25.26793 | 51.60401 | 36 ft | 4 kts | 67° |
| 2026-05-03 21:46 | 25.26798 | 51.60415 | 36 ft | 0 kts | 67° |